Sinop, Brazil
Current Conditions -  °F | °C
As of 3:00 PM on Wednesday 28 Jan 2015 (Local Time) from SBAT Reporting Station
Scattered Clouds Scattered Clouds  
Wind Chill: 90°   Ceiling: Unl
Heat Index: 98°   Visibility: 6mi
Dew Point: 73°   Wind: 7mph
Humidity: 59%   Direction: 270°W
Pressure: 29.88"   Gusts: NA
Location:  11.85°S, 55.46°W
Report Text: SBAT 281800Z 27006KT 9999 FEW022 FEW025TCU SCT100 32/23 Q1012
Loading
Personal Weather Stations






























Interactive Weather Map New forecast layout! Learn more

10-Day Weather Forecast

Advertisements
Track Severe Weather on mobile